Time;durP1;ratioP1;P1;durP2;ratioP2;P2;SDS_P1;SDS_P2;PMS_P1;PMS_P2;Temp;Humidity;BMP_temperature;BMP_pressure;BME280_temperature;BME280_humidity;BME280_pressure;Samples;Min_cycle;Max_cycle;Signal;HPM_P1;HPM_P2
2023/01/10 00:01:42;;;;;;;5.18;3.00;;;;;;;2.68;100.00;93888.28;5132148;27;20200;-83
2023/01/10 00:04:11;;;;;;;12.65;4.22;;;;;;;2.68;100.00;93890.16;5133268;27;20212;-82
2023/01/10 00:06:40;;;;;;;5.05;3.05;;;;;;;2.64;100.00;93876.59;5124195;27;20197;-84
2023/01/10 00:09:06;;;;;;;9.15;4.38;;;;;;;2.65;100.00;93870.16;5126818;27;20260;-85
2023/01/10 00:14:18;;;;;;;8.88;3.30;;;;;;;2.67;100.00;93892.06;5131891;27;20199;-86
2023/01/10 00:16:45;;;;;;;3.90;2.40;;;;;;;2.66;100.00;93890.47;5134270;27;20201;-86
2023/01/10 00:19:14;;;;;;;7.75;3.38;;;;;;;2.63;100.00;93875.00;5119487;27;20224;-88
2023/01/10 00:21:41;;;;;;;11.23;3.92;;;;;;;2.58;100.00;93872.44;5133149;27;20232;-87
2023/01/10 00:24:15;;;;;;;8.45;4.15;;;;;;;2.62;100.00;93889.47;5137577;27;20200;-85
2023/01/10 00:26:45;;;;;;;3.75;1.85;;;;;;;2.71;100.00;93893.06;5139395;27;20200;-86
2023/01/10 00:29:14;;;;;;;7.82;4.93;;;;;;;2.74;100.00;93913.81;5139778;27;20229;-86
2023/01/10 00:31:41;;;;;;;8.93;3.97;;;;;;;2.68;100.00;93877.59;5130346;27;20218;-81
2023/01/10 00:34:08;;;;;;;7.93;3.75;;;;;;;2.65;100.00;93859.47;5115271;27;20209;-84
2023/01/10 00:36:36;;;;;;;3.95;2.40;;;;;;;2.72;100.00;93875.13;5122870;27;20611;-88
2023/01/10 00:39:11;;;;;;;12.02;4.68;;;;;;;2.67;100.00;93849.28;5132994;27;20247;-86
2023/01/10 00:44:25;;;;;;;6.07;3.55;;;;;;;2.70;100.00;93842.53;5114168;27;20671;-84
2023/01/10 00:46:52;;;;;;;2.80;2.20;;;;;;;2.58;100.00;93834.22;5132915;27;20201;-78
2023/01/10 00:49:18;;;;;;;4.05;2.35;;;;;;;2.64;100.00;93839.16;5132055;27;20610;-86
2023/01/10 00:51:46;;;;;;;3.78;2.63;;;;;;;2.58;100.00;93856.41;5132543;27;20209;-85
2023/01/10 00:54:14;;;;;;;14.00;5.82;;;;;;;2.50;100.00;93851.72;5132777;27;20245;-85
2023/01/10 00:56:41;;;;;;;5.00;3.35;;;;;;;2.61;100.00;93869.16;5129294;27;20197;-87
2023/01/10 00:59:08;;;;;;;9.82;4.18;;;;;;;2.50;100.00;93838.38;5113262;27;20209;-86
2023/01/10 01:01:35;;;;;;;4.55;2.33;;;;;;;2.57;100.00;93841.47;5130247;27;20201;-87
2023/01/10 01:04:02;;;;;;;14.18;3.45;;;;;;;2.52;100.00;93830.84;5126805;27;20575;-82
2023/01/10 01:06:28;;;;;;;5.72;3.30;;;;;;;2.42;100.00;93825.72;5124651;27;20668;-84
2023/01/10 01:08:57;;;;;;;3.15;2.17;;;;;;;2.50;100.00;93841.03;5127768;27;20229;-87
2023/01/10 01:11:23;;;;;;;2.28;2.00;;;;;;;2.56;100.00;93857.78;5134606;27;20217;-84
2023/01/10 01:13:50;;;;;;;8.23;3.38;;;;;;;2.60;100.00;93859.56;5133230;27;20201;-84
2023/01/10 01:16:17;;;;;;;10.43;3.28;;;;;;;2.56;100.00;93823.84;5133310;27;20656;-83
2023/01/10 01:18:44;;;;;;;7.25;2.60;;;;;;;2.57;100.00;93828.09;5131967;27;20196;-87
2023/01/10 01:21:10;;;;;;;6.88;3.17;;;;;;;2.70;100.00;93821.94;5123102;27;20229;-83
2023/01/10 01:23:37;;;;;;;5.70;3.22;;;;;;;2.75;100.00;93826.38;5126320;27;20303;-84
2023/01/10 01:26:06;;;;;;;6.30;3.70;;;;;;;2.71;100.00;93823.53;5129035;27;20261;-83
2023/01/10 01:28:33;;;;;;;6.93;3.80;;;;;;;2.68;100.00;93813.44;5131371;27;20323;-86
2023/01/10 01:30:59;;;;;;;8.95;4.00;;;;;;;2.71;100.00;93850.28;5122169;27;20213;-84
2023/01/10 01:33:26;;;;;;;7.15;1.67;;;;;;;2.80;100.00;93859.19;5125117;27;20257;-88
2023/01/10 01:35:53;;;;;;;4.78;2.13;;;;;;;2.92;100.00;93853.31;5126466;27;20262;-88
2023/01/10 01:38:20;;;;;;;3.85;2.78;;;;;;;2.80;100.00;93800.34;5131825;27;20232;-84
2023/01/10 01:40:46;;;;;;;5.95;3.72;;;;;;;2.90;100.00;93825.28;5130563;27;20201;-84
2023/01/10 01:43:24;;;;;;;6.78;4.20;;;;;;;2.96;99.54;93797.34;5129705;27;20201;-80
2023/01/10 01:45:51;;;;;;;6.20;2.92;;;;;;;3.06;98.58;93838.03;5118248;27;20592;-85
2023/01/10 01:48:27;;;;;;;7.65;3.55;;;;;;;3.03;98.16;93803.06;5129006;27;20308;-83
2023/01/10 01:51:04;;;;;;;7.25;3.15;;;;;;;3.06;97.89;93824.66;5129588;27;20196;-87
2023/01/10 01:53:34;;;;;;;2.97;2.38;;;;;;;3.04;97.65;93812.69;5131382;27;20630;-82
2023/01/10 01:56:05;;;;;;;5.68;2.15;;;;;;;3.09;97.64;93813.38;5127924;27;20190;-86
2023/01/10 01:58:39;;;;;;;5.88;3.15;;;;;;;3.07;97.31;93817.44;5121549;27;20682;-82
2023/01/10 02:01:06;;;;;;;8.55;3.75;;;;;;;3.04;97.57;93801.97;5131588;27;20227;-85
2023/01/10 02:03:33;;;;;;;4.78;2.85;;;;;;;3.02;97.66;93802.28;5131476;27;20216;-87
2023/01/10 02:06:00;;;;;;;3.50;1.83;;;;;;;3.07;97.63;93798.72;5127440;27;20250;-87
2023/01/10 02:08:27;;;;;;;1.88;1.70;;;;;;;3.11;96.81;93783.66;5128486;27;20728;-85
2023/01/10 02:10:58;;;;;;;3.42;2.40;;;;;;;3.17;96.58;93766.38;5147867;27;20306;-83
2023/01/10 02:13:27;;;;;;;4.00;2.22;;;;;;;3.25;95.16;93764.88;5135817;27;20197;-80
2023/01/10 02:15:55;;;;;;;6.65;2.15;;;;;;;3.34;94.87;93755.03;5144017;27;20196;-85
2023/01/10 02:18:23;;;;;;;3.20;2.35;;;;;;;3.36;94.25;93750.97;5135318;27;20212;-88
2023/01/10 02:21:07;;;;;;;2.83;2.05;;;;;;;3.34;94.10;93766.53;5131888;27;20775;-84
2023/01/10 02:24:09;;;;;;;1.38;1.15;;;;;;;3.45;94.64;93781.25;5132431;27;20201;-89
2023/01/10 02:27:03;;;;;;;2.83;1.35;;;;;;;3.44;94.22;93776.19;5118360;27;20212;-88
2023/01/10 02:30:05;;;;;;;1.95;1.52;;;;;;;3.29;96.22;93774.66;5128398;27;20699;-87
2023/01/10 02:32:42;;;;;;;5.13;3.13;;;;;;;3.08;97.70;93757.50;5121801;27;20205;-84
2023/01/10 02:35:27;;;;;;;0.82;0.77;;;;;;;3.01;98.98;93751.75;5120187;27;20197;-86
2023/01/10 02:38:00;;;;;;;3.90;3.42;;;;;;;3.02;98.43;93754.13;5121098;28;20205;-83
2023/01/10 02:40:43;;;;;;;6.55;2.10;;;;;;;3.01;98.47;93749.06;5128609;28;20201;-84
2023/01/10 02:43:14;;;;;;;5.78;3.17;;;;;;;3.01;97.78;93751.75;5112893;28;20196;-85
2023/01/10 02:45:47;;;;;;;6.10;3.03;;;;;;;3.03;97.21;93749.56;5121619;28;20663;-87
2023/01/10 02:48:16;;;;;;;6.55;2.15;;;;;;;3.08;97.24;93760.97;5126469;28;20288;-85
2023/01/10 02:50:55;;;;;;;3.08;2.50;;;;;;;3.15;96.82;93747.16;5111078;28;20247;-85
2023/01/10 02:53:27;;;;;;;2.72;1.42;;;;;;;3.13;96.88;93746.69;5117883;28;20197;-83
2023/01/10 02:56:19;;;;;;;3.58;2.13;;;;;;;3.10;96.52;93745.41;5114582;28;20597;-79
2023/01/10 02:59:03;;;;;;;12.43;3.20;;;;;;;3.05;96.92;93768.78;5122181;28;20189;-87
2023/01/10 03:01:37;;;;;;;2.67;2.03;;;;;;;3.06;97.22;93773.06;5128764;28;20185;-88
2023/01/10 03:04:12;;;;;;;4.75;2.40;;;;;;;3.13;97.63;93781.47;5131073;28;20207;-86
2023/01/10 03:06:46;;;;;;;10.98;2.72;;;;;;;2.99;98.49;93770.81;5130255;28;20200;-85
2023/01/10 03:09:21;;;;;;;3.33;2.03;;;;;;;2.93;99.38;93776.56;5116294;28;20282;-87
2023/01/10 03:11:56;;;;;;;4.85;2.60;;;;;;;2.92;100.00;93780.31;5130335;28;20197;-88
2023/01/10 03:14:28;;;;;;;5.65;3.40;;;;;;;2.99;100.00;93781.50;5130087;28;20580;-89
2023/01/10 03:16:58;;;;;;;5.20;3.50;;;;;;;2.92;100.00;93786.47;5129455;28;20668;-89
2023/01/10 03:19:31;;;;;;;5.97;2.67;;;;;;;3.02;100.00;93769.38;5126852;28;20205;-89
2023/01/10 03:22:00;;;;;;;5.18;2.83;;;;;;;3.05;100.00;93774.16;5116583;28;20186;-89
2023/01/10 03:24:32;;;;;;;5.30;2.22;;;;;;;3.12;99.89;93779.88;5120547;28;20209;-90
2023/01/10 03:27:06;;;;;;;4.63;2.30;;;;;;;3.14;100.00;93793.75;5127169;28;20201;-89
2023/01/10 03:29:41;;;;;;;9.00;4.13;;;;;;;3.22;99.80;93790.34;5120969;28;20328;-89
2023/01/10 03:32:11;;;;;;;6.95;4.00;;;;;;;3.30;99.31;93770.88;5131434;28;20609;-88
2023/01/10 03:34:40;;;;;;;6.30;2.63;;;;;;;3.22;98.48;93795.72;5130587;28;20231;-86
2023/01/10 03:37:13;;;;;;;6.15;3.63;;;;;;;3.21;98.55;93786.09;5123988;28;20205;-86
2023/01/10 03:39:49;;;;;;;5.60;3.72;;;;;;;3.30;98.28;93791.50;5125213;28;20209;-87
2023/01/10 03:42:23;;;;;;;5.55;2.50;;;;;;;3.16;98.69;93780.84;5128545;28;20775;-88
2023/01/10 03:44:57;;;;;;;5.05;2.58;;;;;;;3.14;98.80;93788.41;5116929;28;20201;-87
2023/01/10 03:47:31;;;;;;;5.90;3.35;;;;;;;3.16;99.16;93786.19;5130431;28;20640;-88
2023/01/10 03:50:03;;;;;;;5.57;2.50;;;;;;;3.20;98.83;93765.78;5128533;28;20225;-89
2023/01/10 03:52:34;;;;;;;3.95;2.15;;;;;;;3.20;98.67;93776.47;5129819;28;20200;-88
2023/01/10 03:55:02;;;;;;;6.00;2.47;;;;;;;3.08;99.25;93773.53;5124800;27;20219;-88
2023/01/10 03:57:29;;;;;;;1.92;1.73;;;;;;;3.05;99.53;93756.22;5124640;27;20197;-89
2023/01/10 03:59:57;;;;;;;6.07;2.90;;;;;;;3.10;99.20;93749.97;5133614;27;20197;-88
2023/01/10 04:02:26;;;;;;;7.45;2.95;;;;;;;3.19;99.44;93737.44;5121008;27;20194;-87
2023/01/10 04:04:53;;;;;;;5.30;4.00;;;;;;;3.25;98.86;93720.19;5134008;27;20250;-90
2023/01/10 04:07:21;;;;;;;5.82;3.35;;;;;;;3.21;98.53;93703.16;5131918;27;20200;-87
2023/01/10 04:09:48;;;;;;;10.55;5.03;;;;;;;3.20;98.66;93704.25;5133353;27;20293;-88
2023/01/10 04:12:15;;;;;;;10.43;4.05;;;;;;;3.29;98.73;93693.59;5119200;27;20206;-88
2023/01/10 04:14:41;;;;;;;5.85;3.83;;;;;;;3.28;98.41;93700.06;5133560;27;20201;-88
2023/01/10 04:17:08;;;;;;;4.30;3.30;;;;;;;3.30;98.82;93708.53;5129671;27;20300;-88
2023/01/10 04:19:35;;;;;;;8.50;3.58;;;;;;;3.20;98.92;93710.38;5122802;27;20197;-89
2023/01/10 04:22:02;;;;;;;6.10;2.55;;;;;;;3.19;99.19;93718.72;5130341;27;20189;-89
2023/01/10 04:24:30;;;;;;;5.72;2.85;;;;;;;3.27;98.75;93723.34;5112713;28;20202;-89
2023/01/10 04:26:57;;;;;;;12.25;5.85;;;;;;;3.28;98.88;93748.97;5128769;27;20205;-88
2023/01/10 04:29:24;;;;;;;6.70;4.38;;;;;;;3.27;98.60;93755.47;5125357;27;20225;-88
2023/01/10 04:31:51;;;;;;;6.65;3.75;;;;;;;3.27;98.29;93752.00;5129235;27;20341;-88
2023/01/10 04:34:19;;;;;;;6.22;3.83;;;;;;;3.30;97.90;93778.91;5130747;27;20193;-84
2023/01/10 04:36:45;;;;;;;10.32;5.18;;;;;;;3.08;98.15;93744.91;5133469;27;20201;-82
2023/01/10 04:39:12;;;;;;;11.13;3.58;;;;;;;3.05;99.17;93784.84;5132518;27;20228;-87
2023/01/10 04:41:41;;;;;;;7.60;3.08;;;;;;;3.15;99.05;93806.00;5129501;27;20266;-88
2023/01/10 04:44:08;;;;;;;12.43;4.45;;;;;;;3.06;98.86;93781.06;5126502;27;20198;-87
2023/01/10 04:46:35;;;;;;;6.93;2.97;;;;;;;3.30;99.13;93794.97;5122170;27;20208;-87
2023/01/10 04:49:02;;;;;;;6.18;3.53;;;;;;;3.47;98.47;93776.38;5119143;27;20312;-86
2023/01/10 04:51:29;;;;;;;7.72;3.78;;;;;;;3.19;97.98;93754.28;5130717;27;20560;-87
2023/01/10 04:53:56;;;;;;;5.55;3.25;;;;;;;3.29;98.18;93747.91;5132208;27;20201;-86
2023/01/10 04:56:23;;;;;;;5.82;2.97;;;;;;;3.23;97.88;93757.16;5129541;27;20201;-83
2023/01/10 04:58:51;;;;;;;3.90;2.63;;;;;;;3.19;97.94;93769.53;5113303;28;20198;-78
2023/01/10 05:01:21;;;;;;;8.52;3.92;;;;;;;3.15;97.88;93774.69;5132448;27;20250;-85
2023/01/10 05:03:48;;;;;;;5.95;2.47;;;;;;;3.23;98.11;93762.50;5122439;27;20189;-88
2023/01/10 05:06:15;;;;;;;3.28;1.98;;;;;;;3.14;98.09;93745.59;5119235;27;20295;-83
2023/01/10 05:08:42;;;;;;;2.92;2.08;;;;;;;3.20;98.00;93744.38;5126183;27;20303;-83
2023/01/10 05:11:09;;;;;;;9.30;4.88;;;;;;;3.16;98.24;93738.03;5119354;27;20789;-88
2023/01/10 05:13:36;;;;;;;8.00;4.00;;;;;;;3.28;98.21;93719.56;5132938;27;20205;-86
2023/01/10 05:16:04;;;;;;;5.07;2.72;;;;;;;3.20;97.55;93714.94;5132643;27;20197;-84
2023/01/10 05:18:31;;;;;;;3.25;2.50;;;;;;;3.16;97.82;93706.72;5130371;27;20205;-79
2023/01/10 05:21:00;;;;;;;4.47;2.30;;;;;;;3.15;97.76;93709.69;5119897;27;20233;-81
2023/01/10 05:23:28;;;;;;;5.45;3.33;;;;;;;3.17;97.90;93718.22;5118292;27;20616;-86
2023/01/10 05:25:54;;;;;;;4.10;2.60;;;;;;;3.20;97.74;93723.75;5123034;27;20289;-87
2023/01/10 05:28:21;;;;;;;4.22;1.92;;;;;;;3.22;97.52;93712.75;5126731;27;20555;-81
2023/01/10 05:30:48;;;;;;;6.03;3.42;;;;;;;3.23;97.52;93717.00;5112494;28;20688;-86
2023/01/10 05:33:16;;;;;;;4.68;3.30;;;;;;;3.27;97.60;93723.34;5129718;27;20253;-89
2023/01/10 05:35:43;;;;;;;6.68;3.28;;;;;;;3.31;97.13;93735.00;5122596;27;20206;-88
2023/01/10 05:38:10;;;;;;;6.43;3.72;;;;;;;3.28;97.29;93734.84;5129493;27;20220;-84
2023/01/10 05:40:36;;;;;;;3.47;1.98;;;;;;;3.38;96.82;93739.94;5133477;27;20277;-87
2023/01/10 05:43:03;;;;;;;7.68;3.33;;;;;;;3.49;96.44;93747.44;5129623;27;20202;-87
2023/01/10 05:45:30;;;;;;;4.78;2.53;;;;;;;3.47;96.34;93744.25;5113157;28;20202;-85
2023/01/10 05:47:57;;;;;;;5.85;3.33;;;;;;;3.56;95.93;93742.41;5126423;27;20553;-85
2023/01/10 05:50:25;;;;;;;6.63;3.05;;;;;;;3.60;95.65;93736.47;5114246;28;20266;-86
2023/01/10 05:52:52;;;;;;;4.55;1.60;;;;;;;3.69;95.13;93740.00;5112736;28;20262;-86
2023/01/10 05:55:18;;;;;;;5.10;3.95;;;;;;;3.73;95.11;93743.63;5112646;28;20243;-86
2023/01/10 05:57:45;;;;;;;8.77;3.92;;;;;;;3.71;95.05;93732.44;5126103;27;20250;-87
2023/01/10 06:00:13;;;;;;;4.70;3.05;;;;;;;3.82;95.29;93736.47;5122874;27;20204;-86
2023/01/10 06:02:40;;;;;;;4.93;2.67;;;;;;;3.89;94.88;93740.25;5118870;27;20197;-86
2023/01/10 06:05:07;;;;;;;4.68;3.05;;;;;;;3.87;94.37;93730.94;5123428;27;20205;-86
2023/01/10 06:07:35;;;;;;;12.23;4.53;;;;;;;3.98;94.69;93759.06;5126299;27;20194;-85
2023/01/10 06:10:03;;;;;;;2.85;1.85;;;;;;;3.94;94.82;93752.75;5112281;28;20349;-86
2023/01/10 06:12:30;;;;;;;2.95;1.58;;;;;;;4.05;94.15;93742.53;5114991;27;20201;-86
2023/01/10 06:14:56;;;;;;;15.48;3.65;;;;;;;3.90;94.25;93746.41;5131722;27;20254;-87
2023/01/10 06:17:23;;;;;;;6.13;3.25;;;;;;;3.98;94.73;93748.34;5117901;27;20205;-87
2023/01/10 06:19:51;;;;;;;5.93;2.40;;;;;;;3.93;94.72;93740.44;5118665;27;20241;-84
2023/01/10 06:22:17;;;;;;;3.80;2.75;;;;;;;3.92;94.88;93746.91;5124182;27;20193;-83
2023/01/10 06:24:46;;;;;;;2.50;2.08;;;;;;;3.95;94.46;93748.97;5123161;27;20205;-83
2023/01/10 06:27:12;;;;;;;6.90;3.45;;;;;;;3.93;94.49;93745.81;5127169;27;20205;-88
2023/01/10 06:29:39;;;;;;;8.35;3.58;;;;;;;4.01;94.17;93738.91;5123148;27;20316;-86
2023/01/10 06:32:06;;;;;;;7.03;3.20;;;;;;;3.95;94.01;93742.81;5125442;27;20206;-84
2023/01/10 06:34:39;;;;;;;2.53;1.58;;;;;;;4.07;94.04;93738.47;5112436;28;20205;-85
2023/01/10 06:37:07;;;;;;;7.70;3.33;;;;;;;4.13;93.45;93731.84;5112930;28;20221;-87
2023/01/10 06:39:33;;;;;;;6.90;3.33;;;;;;;4.16;94.25;93739.28;5126725;27;20219;-87
2023/01/10 06:42:05;;;;;;;8.93;3.50;;;;;;;4.31;94.30;93739.97;5125485;27;20610;-86
2023/01/10 06:44:37;;;;;;;6.25;3.78;;;;;;;4.40;93.92;93738.09;5125200;28;20198;-84
2023/01/10 06:47:04;;;;;;;10.70;4.88;;;;;;;4.32;93.78;93738.88;5125615;28;20282;-87
2023/01/10 06:49:30;;;;;;;6.68;2.95;;;;;;;4.45;94.39;93740.66;5129531;28;20667;-83
2023/01/10 06:51:57;;;;;;;9.18;4.07;;;;;;;4.52;94.07;93740.97;5130995;28;20728;-85
2023/01/10 06:54:26;;;;;;;8.77;3.45;;;;;;;4.51;94.58;93739.41;5118333;28;20258;-87
2023/01/10 06:57:05;;;;;;;3.70;2.58;;;;;;;4.42;94.98;93739.38;5121635;28;20236;-86
2023/01/10 06:59:35;;;;;;;5.50;2.00;;;;;;;4.38;95.76;93729.56;5126136;28;20440;-86
2023/01/10 07:02:02;;;;;;;9.65;4.18;;;;;;;4.36;95.95;93731.81;5124472;28;20196;-85
2023/01/10 07:04:31;;;;;;;4.05;2.53;;;;;;;4.43;96.59;93721.41;5119259;28;20226;-86
2023/01/10 07:06:58;;;;;;;9.95;4.50;;;;;;;4.37;96.33;93719.97;5130889;28;20543;-82
2023/01/10 07:09:25;;;;;;;5.32;3.33;;;;;;;4.40;97.40;93711.28;5116180;28;20703;-80
2023/01/10 07:12:00;;;;;;;13.15;3.97;;;;;;;4.40;98.41;93720.13;5118503;28;20205;-80
2023/01/10 07:14:27;;;;;;;8.35;3.33;;;;;;;4.35;98.76;93716.81;5116460;28;20188;-83
2023/01/10 07:16:55;;;;;;;5.80;3.80;;;;;;;4.33;99.84;93710.97;5117760;28;20710;-84
2023/01/10 07:19:25;;;;;;;2.70;2.10;;;;;;;4.33;100.00;93705.59;5118003;27;20277;-81
2023/01/10 07:21:52;;;;;;;6.53;3.78;;;;;;;4.28;100.00;93710.00;5130064;28;20732;-78
2023/01/10 07:24:24;;;;;;;9.52;4.63;;;;;;;4.23;100.00;93702.13;5117282;28;20679;-79
2023/01/10 07:26:51;;;;;;;6.18;3.38;;;;;;;4.21;100.00;93704.31;5116126;28;20197;-79
2023/01/10 07:29:17;;;;;;;7.78;3.03;;;;;;;4.22;100.00;93695.19;5121603;28;20202;-80
2023/01/10 07:31:44;;;;;;;6.32;3.75;;;;;;;4.15;100.00;93699.38;5128192;27;20288;-79
2023/01/10 07:34:13;;;;;;;5.28;3.08;;;;;;;4.11;100.00;93688.50;5125920;27;20216;-80
2023/01/10 07:36:40;;;;;;;4.75;1.90;;;;;;;4.09;100.00;93690.72;5128964;27;20301;-78
2023/01/10 07:39:07;;;;;;;11.23;5.03;;;;;;;4.00;100.00;93692.56;5125071;27;20266;-78
2023/01/10 07:41:37;;;;;;;8.45;3.28;;;;;;;4.03;100.00;93691.16;5126910;27;20201;-79
2023/01/10 07:44:04;;;;;;;7.53;3.53;;;;;;;4.04;100.00;93695.41;5113778;28;20194;-77
2023/01/10 07:46:30;;;;;;;3.00;2.35;;;;;;;4.05;100.00;93676.34;5121167;27;20264;-78
2023/01/10 07:48:57;;;;;;;2.33;2.13;;;;;;;4.06;100.00;93661.84;5130567;27;20204;-76
2023/01/10 07:51:25;;;;;;;4.15;3.05;;;;;;;4.14;100.00;93677.16;5126729;27;20241;-77
2023/01/10 07:53:56;;;;;;;8.52;2.80;;;;;;;4.20;100.00;93669.78;5129658;27;20201;-77
2023/01/10 07:56:25;;;;;;;4.15;2.88;;;;;;;4.16;100.00;93684.91;5127207;27;20194;-75
2023/01/10 07:58:52;;;;;;;4.63;2.20;;;;;;;4.16;100.00;93680.31;5122542;27;20345;-76
2023/01/10 08:01:19;;;;;;;6.65;3.08;;;;;;;4.19;100.00;93681.59;5121917;27;20189;-76
2023/01/10 08:03:45;;;;;;;7.85;4.90;;;;;;;4.21;100.00;93685.56;5125641;27;20266;-77
2023/01/10 08:06:12;;;;;;;6.00;3.13;;;;;;;4.23;100.00;93691.41;5133072;27;21004;-75
2023/01/10 08:08:40;;;;;;;8.48;3.63;;;;;;;4.22;100.00;93687.13;5128221;27;20217;-78
2023/01/10 08:11:07;;;;;;;4.93;3.90;;;;;;;4.22;100.00;93689.81;5132784;27;20699;-75
2023/01/10 08:13:34;;;;;;;5.50;3.30;;;;;;;4.26;100.00;93689.97;5119213;27;20197;-76
2023/01/10 08:16:04;;;;;;;8.85;2.92;;;;;;;4.32;100.00;93679.91;5126146;27;20650;-78
2023/01/10 08:18:31;;;;;;;5.15;2.55;;;;;;;4.38;100.00;93668.72;5126518;27;20720;-80
2023/01/10 08:20:58;;;;;;;6.10;3.50;;;;;;;4.44;100.00;93658.63;5125756;27;20233;-76
2023/01/10 08:23:25;;;;;;;3.97;2.65;;;;;;;4.51;100.00;93669.72;5126928;27;20254;-78
2023/01/10 08:25:54;;;;;;;5.30;3.22;;;;;;;4.61;100.00;93659.47;5121170;27;20223;-80
2023/01/10 08:28:23;;;;;;;5.65;2.78;;;;;;;4.61;100.00;93646.06;5119058;27;20280;-79
2023/01/10 08:30:54;;;;;;;4.50;2.75;;;;;;;4.72;100.00;93648.41;5125346;27;20225;-78
2023/01/10 08:33:21;;;;;;;4.15;2.78;;;;;;;4.77;100.00;93641.03;5129713;27;20274;-77
2023/01/10 08:35:48;;;;;;;8.50;4.63;;;;;;;4.77;100.00;93646.38;5133883;27;20262;-77
2023/01/10 08:38:14;;;;;;;13.45;5.88;;;;;;;4.66;100.00;93650.47;5117233;27;20194;-77
2023/01/10 08:40:41;;;;;;;4.28;3.17;;;;;;;4.64;100.00;93631.25;5113072;28;20209;-78
2023/01/10 08:43:11;;;;;;;8.15;3.58;;;;;;;4.76;100.00;93644.81;5127663;27;20811;-79
2023/01/10 08:45:38;;;;;;;6.47;3.13;;;;;;;4.70;100.00;93638.00;5122709;27;20200;-77
2023/01/10 08:48:08;;;;;;;9.10;4.07;;;;;;;4.70;100.00;93635.31;5125720;27;20206;-77
2023/01/10 08:50:35;;;;;;;13.63;6.93;;;;;;;4.65;100.00;93635.47;5122880;27;20225;-76
2023/01/10 08:53:01;;;;;;;8.07;5.55;;;;;;;4.66;100.00;93634.38;5128533;27;20202;-76
2023/01/10 08:55:30;;;;;;;9.95;4.63;;;;;;;4.58;100.00;93638.63;5123852;27;20261;-76
2023/01/10 08:57:59;;;;;;;8.95;4.18;;;;;;;4.65;100.00;93632.78;5127962;27;20194;-77
2023/01/10 09:00:27;;;;;;;13.15;5.95;;;;;;;4.75;100.00;93629.81;5110910;28;20726;-80
2023/01/10 09:02:54;;;;;;;11.73;4.72;;;;;;;4.87;100.00;93629.97;5111217;28;20661;-80
2023/01/10 09:05:21;;;;;;;8.43;5.05;;;;;;;5.03;100.00;93632.19;5111606;28;20209;-80
2023/01/10 09:07:48;;;;;;;10.95;4.78;;;;;;;5.09;100.00;93623.63;5131421;27;20196;-79
2023/01/10 09:10:14;;;;;;;7.57;4.28;;;;;;;5.23;100.00;93620.75;5132355;27;20636;-79
2023/01/10 09:12:58;;;;;;;9.38;4.55;;;;;;;5.39;100.00;93613.00;5132190;27;20197;-79
2023/01/10 09:15:29;;;;;;;7.43;3.63;;;;;;;5.00;100.00;93636.28;5118207;27;20691;-78
2023/01/10 09:17:56;;;;;;;2.72;2.53;;;;;;;4.78;100.00;93626.50;5124052;27;20738;-79
2023/01/10 09:20:24;;;;;;;18.58;7.53;;;;;;;4.71;100.00;93625.38;5127227;27;20236;-78
2023/01/10 09:22:51;;;;;;;15.93;7.63;;;;;;;4.95;100.00;93615.75;5123165;27;20733;-79
2023/01/10 09:25:18;;;;;;;13.63;6.13;;;;;;;5.29;100.00;93609.56;5112231;28;20197;-79
2023/01/10 09:27:45;;;;;;;13.75;5.47;;;;;;;5.38;100.00;93622.94;5121717;27;20254;-79
2023/01/10 09:30:13;;;;;;;13.05;7.15;;;;;;;5.40;100.00;93615.38;5111637;27;20197;-80
2023/01/10 09:32:41;;;;;;;16.35;7.03;;;;;;;5.33;100.00;93610.47;5123289;27;20198;-81
2023/01/10 09:35:08;;;;;;;23.55;8.50;;;;;;;5.28;100.00;93609.88;5125258;27;20205;-80
2023/01/10 09:37:36;;;;;;;17.27;9.00;;;;;;;5.29;100.00;93608.78;5120777;27;20228;-80
2023/01/10 09:40:05;;;;;;;8.00;4.57;;;;;;;4.80;100.00;93597.44;5128499;27;20258;-80
2023/01/10 09:42:49;;;;;;;13.48;7.28;;;;;;;4.70;100.00;93591.63;5121768;27;20277;-80
2023/01/10 09:45:20;;;;;;;12.60;6.15;;;;;;;4.58;100.00;93579.63;5112878;27;20193;-80
2023/01/10 09:47:53;;;;;;;18.90;8.55;;;;;;;4.61;100.00;93578.22;5124757;27;20204;-80
2023/01/10 09:50:40;;;;;;;19.27;9.75;;;;;;;4.75;100.00;93573.50;5122611;27;20189;-80
2023/01/10 09:53:12;;;;;;;17.88;8.15;;;;;;;4.97;100.00;93581.34;5125020;27;20202;-79
2023/01/10 09:55:39;;;;;;;16.52;7.88;;;;;;;7.03;100.00;93578.72;5119744;27;20253;-82
2023/01/10 09:58:12;;;;;;;15.20;8.25;;;;;;;6.93;100.00;93584.50;5131594;27;20201;-80
2023/01/10 10:00:44;;;;;;;15.77;6.53;;;;;;;5.94;100.00;93567.31;5113485;27;20701;-83
2023/01/10 10:03:21;;;;;;;19.83;7.00;;;;;;;5.33;100.00;93566.72;5123248;27;20201;-84
2023/01/10 10:05:49;;;;;;;18.25;7.35;;;;;;;5.06;100.00;93556.41;5126339;27;20648;-78
2023/01/10 10:08:18;;;;;;;12.82;6.65;;;;;;;5.08;100.00;93565.69;5124082;27;20230;-80
2023/01/10 10:10:56;;;;;;;14.23;5.70;;;;;;;4.91;100.00;93566.53;5132857;27;20224;-85
2023/01/10 10:13:35;;;;;;;14.20;6.78;;;;;;;5.14;100.00;93566.31;5114068;27;20236;-84
2023/01/10 10:16:09;;;;;;;13.15;6.95;;;;;;;5.05;100.00;93570.94;5117886;27;20192;-81
2023/01/10 10:18:48;;;;;;;7.97;3.67;;;;;;;4.79;100.00;93563.69;5130074;27;20627;-83
2023/01/10 10:21:21;;;;;;;14.77;7.53;;;;;;;4.73;100.00;93564.97;5117911;27;21098;-75
2023/01/10 10:24:05;;;;;;;10.80;5.72;;;;;;;4.75;100.00;93561.97;5129592;27;20189;-76
2023/01/10 10:26:34;;;;;;;12.73;5.88;;;;;;;4.91;100.00;93566.53;5117347;27;20286;-76
2023/01/10 10:29:24;;;;;;;21.60;7.03;;;;;;;5.01;100.00;93560.03;5129833;27;20204;-75
2023/01/10 10:32:03;;;;;;;6.22;2.90;;;;;;;4.90;100.00;93556.13;5126464;27;20232;-77
2023/01/10 10:34:36;;;;;;;11.77;6.13;;;;;;;4.98;100.00;93545.34;5127730;27;20185;-82
2023/01/10 10:37:09;;;;;;;13.32;6.97;;;;;;;5.10;100.00;93542.00;5110851;28;20500;-76
2023/01/10 10:39:39;;;;;;;14.07;6.55;;;;;;;5.29;100.00;93534.38;5123551;27;20682;-79
2023/01/10 10:42:10;;;;;;;13.57;5.93;;;;;;;5.33;100.00;93539.88;5117529;27;20212;-81
2023/01/10 10:44:41;;;;;;;16.30;7.75;;;;;;;5.25;100.00;93527.28;5128834;28;20189;-79
2023/01/10 10:47:15;;;;;;;17.40;7.82;;;;;;;5.29;100.00;93530.91;5119117;28;20265;-80
2023/01/10 10:49:48;;;;;;;29.88;11.18;;;;;;;5.36;100.00;93528.50;5129173;28;20197;-78
2023/01/10 10:52:23;;;;;;;22.40;10.05;;;;;;;5.46;100.00;93522.81;5129901;28;20270;-79
2023/01/10 10:54:51;;;;;;;20.33;8.20;;;;;;;5.48;100.00;93519.75;5109673;28;20185;-78
2023/01/10 10:57:18;;;;;;;18.08;8.27;;;;;;;5.60;100.00;93527.94;5122546;28;20201;-78
2023/01/10 10:59:49;;;;;;;19.95;9.32;;;;;;;5.59;100.00;93531.75;5110332;28;20197;-80
2023/01/10 11:02:26;;;;;;;19.13;8.93;;;;;;;5.49;100.00;93532.88;5122626;28;20238;-79
2023/01/10 11:04:58;;;;;;;24.73;9.85;;;;;;;5.54;100.00;93529.22;5117591;27;20196;-78
2023/01/10 11:07:28;;;;;;;25.05;9.30;;;;;;;5.27;100.00;93515.13;5134077;27;20253;-78
2023/01/10 11:12:44;;;;;;;15.52;7.35;;;;;;;7.39;100.00;93499.13;5119603;27;20710;-78
2023/01/10 11:15:11;;;;;;;12.10;7.03;;;;;;;5.53;100.00;93496.22;5122484;27;20190;-86
2023/01/10 11:17:39;;;;;;;16.17;6.82;;;;;;;5.20;100.00;93498.72;5128119;27;20205;-83
2023/01/10 11:20:16;;;;;;;15.68;8.57;;;;;;;5.09;100.00;93507.44;5131926;27;20236;-80
2023/01/10 11:22:48;;;;;;;15.35;6.05;;;;;;;4.95;100.00;93496.91;5107003;27;20185;-80
2023/01/10 11:25:16;;;;;;;17.23;6.65;;;;;;;4.91;100.00;93502.13;5141601;27;20238;-84
2023/01/10 11:27:47;;;;;;;11.20;6.22;;;;;;;4.90;100.00;93495.19;5137620;27;20209;-78
2023/01/10 11:30:20;;;;;;;11.85;4.63;;;;;;;4.85;100.00;93495.34;5120178;27;20193;-79
2023/01/10 11:32:52;;;;;;;10.93;5.95;;;;;;;4.84;100.00;93501.81;5123230;27;20218;-79
2023/01/10 11:35:26;;;;;;;16.88;7.57;;;;;;;4.91;100.00;93504.81;5126410;27;20304;-78
2023/01/10 11:38:00;;;;;;;8.00;5.75;;;;;;;4.93;100.00;93507.94;5126462;27;20185;-86
2023/01/10 11:40:27;;;;;;;12.77;6.10;;;;;;;4.93;100.00;93505.25;5121689;27;20648;-79
2023/01/10 11:42:56;;;;;;;9.70;4.38;;;;;;;4.80;100.00;93500.88;5120746;27;20202;-80
2023/01/10 11:45:31;;;;;;;17.05;6.55;;;;;;;4.78;100.00;93502.31;5126594;27;20206;-82
2023/01/10 11:48:06;;;;;;;17.88;5.60;;;;;;;4.70;100.00;93506.59;5126704;27;20196;-82
2023/01/10 11:50:37;;;;;;;8.98;5.22;;;;;;;4.84;100.00;93493.78;5124027;27;20205;-84
2023/01/10 11:53:05;;;;;;;20.27;8.02;;;;;;;4.71;100.00;93492.06;5128808;27;20218;-84
2023/01/10 11:55:34;;;;;;;14.40;6.47;;;;;;;4.75;100.00;93503.75;5125232;27;20201;-85